createdAt,value
2019-02-11T00:01:08.998Z,3.90
2019-02-11T00:03:36.236Z,3.90
2019-02-11T00:06:03.476Z,3.80
2019-02-11T00:08:30.715Z,3.90
2019-02-11T00:10:59.629Z,3.90
2019-02-11T00:13:27.109Z,3.80
2019-02-11T00:15:54.369Z,3.70
2019-02-11T00:18:21.612Z,3.80
2019-02-11T00:20:48.846Z,3.80
2019-02-11T00:23:16.363Z,3.70
2019-02-11T00:25:43.920Z,3.80
2019-02-11T00:28:11.164Z,3.70
2019-02-11T00:30:38.408Z,3.70
2019-02-11T00:33:05.738Z,3.70
2019-02-11T00:35:32.981Z,3.80
2019-02-11T00:38:00.304Z,3.70
2019-02-11T00:40:27.619Z,3.60
2019-02-11T00:42:55.199Z,3.70
2019-02-11T00:45:22.432Z,3.70
2019-02-11T00:47:50.017Z,3.70
2019-02-11T00:50:17.259Z,3.70
2019-02-11T00:52:44.501Z,3.70
2019-02-11T00:55:13.811Z,3.70
2019-02-11T00:57:41.049Z,3.80
2019-02-11T01:00:10.652Z,3.80
2019-02-11T01:02:37.892Z,3.70
2019-02-11T01:05:05.294Z,3.70
2019-02-11T01:07:32.531Z,3.70
2019-02-11T01:09:59.789Z,3.80
2019-02-11T01:12:27.011Z,3.80
2019-02-11T01:14:54.349Z,3.80
2019-02-11T01:17:21.948Z,3.80
2019-02-11T01:19:49.176Z,3.80
2019-02-11T01:22:16.407Z,3.80
2019-02-11T01:24:43.640Z,3.90
2019-02-11T01:27:10.879Z,3.90
2019-02-11T01:29:38.135Z,3.90
2019-02-11T01:32:05.374Z,3.90
2019-02-11T01:34:32.617Z,3.90
2019-02-11T01:36:59.853Z,3.80
2019-02-11T01:39:27.440Z,3.80
2019-02-11T01:41:54.702Z,3.90
2019-02-11T01:44:22.224Z,3.90
2019-02-11T01:46:49.469Z,3.90
2019-02-11T01:49:18.499Z,4.00
2019-02-11T01:51:45.731Z,4.10
2019-02-11T01:54:12.970Z,4.00
2019-02-11T01:56:40.207Z,4.00
2019-02-11T01:59:07.804Z,4.00
2019-02-11T02:01:35.043Z,4.00
2019-02-11T02:04:02.277Z,4.10
2019-02-11T02:06:29.508Z,4.10
2019-02-11T02:08:57.101Z,4.00
2019-02-11T02:11:24.340Z,4.00
2019-02-11T02:13:51.568Z,4.00
2019-02-11T02:16:18.812Z,4.10
2019-02-11T02:18:46.044Z,4.10
2019-02-11T02:21:13.304Z,4.00
2019-02-11T02:23:40.645Z,4.10
2019-02-11T02:26:07.885Z,4.10
2019-02-11T02:28:35.119Z,4.10
2019-02-11T02:31:02.357Z,4.10
2019-02-11T02:33:29.690Z,4.10
2019-02-11T02:35:57.035Z,4.10
2019-02-11T02:38:24.273Z,4.10
2019-02-11T02:40:51.532Z,4.10
2019-02-11T02:43:18.760Z,4.00
2019-02-11T02:45:46.017Z,4.10
2019-02-11T02:48:13.538Z,4.10
2019-02-11T02:50:40.789Z,4.10
2019-02-11T02:53:08.363Z,4.00
2019-02-11T02:55:35.624Z,4.00
2019-02-11T02:58:03.260Z,4.10
2019-02-11T03:00:30.840Z,4.00
2019-02-11T03:02:59.699Z,4.00
2019-02-11T03:05:26.927Z,4.00
2019-02-11T03:07:54.165Z,3.90
2019-02-11T03:10:21.421Z,3.90
2019-02-11T03:12:48.657Z,3.90
2019-02-11T03:15:15.916Z,3.90
2019-02-11T03:17:43.158Z,3.80
2019-02-11T03:20:10.677Z,3.80
2019-02-11T03:22:38.032Z,3.80
2019-02-11T03:25:05.431Z,3.80
2019-02-11T03:27:32.944Z,3.80
2019-02-11T03:30:00.302Z,3.80
2019-02-11T03:32:27.645Z,3.80
2019-02-11T03:34:55.004Z,3.70
2019-02-11T03:37:22.262Z,3.70
2019-02-11T03:39:49.620Z,3.80
2019-02-11T03:42:16.852Z,3.80
2019-02-11T03:44:44.421Z,3.80
2019-02-11T03:47:11.986Z,3.80
2019-02-11T03:49:39.249Z,3.70
2019-02-11T03:52:06.918Z,3.70
2019-02-11T03:54:34.181Z,3.70
2019-02-11T03:57:01.412Z,3.70
2019-02-11T03:59:28.676Z,3.90
2019-02-11T04:01:55.952Z,3.90
2019-02-11T04:04:23.176Z,3.90
2019-02-11T04:06:50.410Z,3.90
2019-02-11T04:09:17.751Z,3.90
2019-02-11T04:11:44.986Z,3.80
2019-02-11T04:14:12.228Z,3.90
2019-02-11T04:16:39.464Z,3.80
2019-02-11T04:19:06.769Z,3.90
2019-02-11T04:21:34.324Z,3.90
2019-02-11T04:24:01.596Z,3.90
2019-02-11T04:26:32.310Z,3.80
2019-02-11T04:28:59.608Z,3.80
2019-02-11T04:31:26.843Z,3.90
2019-02-11T04:33:54.201Z,3.80
2019-02-11T04:36:21.432Z,3.70
2019-02-11T04:38:49.044Z,3.80
2019-02-11T04:41:16.371Z,3.80
2019-02-11T04:43:43.640Z,3.80
2019-02-11T04:46:10.868Z,3.90
2019-02-11T04:48:38.143Z,3.80
2019-02-11T04:51:05.381Z,3.80
2019-02-11T04:53:32.646Z,3.80
2019-02-11T04:56:00.156Z,3.80
2019-02-11T04:58:27.423Z,3.80
2019-02-11T05:00:54.685Z,3.70
2019-02-11T05:03:21.944Z,3.70
2019-02-11T05:05:49.177Z,3.70
2019-02-11T05:08:16.461Z,3.70
2019-02-11T05:10:43.793Z,3.60
2019-02-11T05:13:11.152Z,3.70
2019-02-11T05:15:38.394Z,3.60
2019-02-11T05:18:05.663Z,3.60
2019-02-11T05:20:33.077Z,3.60
2019-02-11T05:23:00.312Z,3.60
2019-02-11T05:25:27.556Z,3.60
2019-02-11T05:27:54.897Z,3.60
2019-02-11T05:30:22.169Z,3.60
2019-02-11T05:32:49.406Z,3.60
2019-02-11T05:35:16.652Z,3.60
2019-02-11T05:37:44.312Z,3.50
2019-02-11T05:40:11.682Z,3.50
2019-02-11T05:42:38.936Z,3.40
2019-02-11T05:45:06.581Z,3.30
2019-02-11T05:47:33.814Z,3.30
2019-02-11T05:50:01.779Z,3.30
2019-02-11T05:52:29.100Z,3.20
2019-02-11T05:54:56.375Z,3.20
2019-02-11T05:57:23.607Z,3.00
2019-02-11T05:59:50.871Z,2.80
2019-02-11T06:02:21.079Z,2.90
2019-02-11T06:04:48.363Z,2.70
2019-02-11T06:07:15.593Z,2.60
2019-02-11T06:09:43.150Z,2.60
2019-02-11T06:12:10.380Z,2.50
2019-02-11T06:14:37.668Z,2.50
2019-02-11T06:17:04.899Z,2.50
2019-02-11T06:19:32.176Z,2.40
2019-02-11T06:21:59.415Z,2.40
2019-02-11T06:24:26.683Z,2.30
2019-02-11T06:26:53.922Z,2.40
2019-02-11T06:29:21.272Z,2.40
2019-02-11T06:31:48.508Z,2.50
2019-02-11T06:34:15.807Z,2.30
2019-02-11T06:36:43.040Z,2.30
2019-02-11T06:39:10.301Z,2.30
2019-02-11T06:41:38.634Z,2.40
2019-02-11T06:44:05.912Z,2.40
2019-02-11T06:46:33.155Z,2.30
2019-02-11T06:49:00.415Z,2.30
2019-02-11T06:51:27.651Z,2.20
2019-02-11T06:53:54.906Z,2.20
2019-02-11T06:56:22.152Z,2.20
2019-02-11T06:58:49.385Z,2.10
2019-02-11T07:01:16.625Z,2.20
2019-02-11T07:03:43.873Z,2.20
2019-02-11T07:06:11.451Z,2.40
2019-02-11T07:08:38.668Z,2.40
2019-02-11T07:11:06.479Z,2.40
2019-02-11T07:13:33.804Z,2.40
2019-02-11T07:16:01.485Z,2.60
2019-02-11T07:18:28.938Z,2.60
2019-02-11T07:20:56.459Z,2.70
2019-02-11T07:23:23.687Z,2.70
2019-02-11T07:25:50.959Z,2.70
2019-02-11T07:28:18.461Z,2.70
2019-02-11T07:30:45.816Z,2.80
2019-02-11T07:33:13.241Z,2.80
2019-02-11T07:35:40.539Z,2.80
2019-02-11T07:38:08.106Z,2.80
2019-02-11T07:40:35.380Z,2.70
2019-02-11T07:43:09.244Z,2.70
2019-02-11T07:45:47.600Z,2.70
2019-02-11T07:48:14.832Z,2.50
2019-02-11T07:50:42.110Z,2.40
2019-02-11T07:53:09.340Z,2.50
2019-02-11T07:55:36.639Z,3.40
2019-02-11T07:58:04.239Z,3.20
2019-02-11T08:00:32.119Z,3.00
2019-02-11T08:02:59.448Z,3.00
2019-02-11T08:05:26.735Z,3.10
2019-02-11T08:07:54.384Z,3.20
2019-02-11T08:10:21.652Z,3.30
2019-02-11T08:12:49.480Z,3.60
2019-02-11T08:15:16.741Z,3.90
2019-02-11T08:17:43.984Z,3.90
2019-02-11T08:20:11.226Z,3.90
2019-02-11T08:22:38.456Z,3.90
2019-02-11T08:25:05.693Z,3.90
2019-02-11T08:27:34.025Z,3.80
2019-02-11T08:30:01.264Z,3.80
2019-02-11T08:32:28.511Z,3.90
2019-02-11T08:34:55.825Z,3.90
2019-02-11T08:37:23.055Z,4.00
2019-02-11T08:39:50.300Z,4.20
2019-02-11T08:42:17.543Z,4.30
2019-02-11T08:44:45.105Z,4.70
2019-02-11T08:47:12.345Z,5.10
2019-02-11T08:49:39.793Z,5.30
2019-02-11T08:52:07.128Z,5.20
2019-02-11T08:54:34.809Z,5.00
2019-02-11T08:57:02.060Z,5.00
2019-02-11T08:59:29.322Z,5.80
2019-02-11T09:01:56.698Z,6.50
2019-02-11T09:04:23.935Z,7.20
2019-02-11T09:06:51.163Z,7.30
2019-02-11T09:09:18.415Z,7.20
2019-02-11T09:11:45.647Z,6.50
2019-02-11T09:14:12.957Z,6.00
2019-02-11T09:16:40.242Z,5.90
2019-02-11T09:19:07.596Z,5.80
2019-02-11T09:21:34.836Z,5.90
2019-02-11T09:24:02.311Z,5.80
2019-02-11T09:26:29.565Z,5.70
2019-02-11T09:28:56.879Z,5.40
2019-02-11T09:31:24.113Z,5.20
2019-02-11T09:33:51.352Z,5.00
2019-02-11T09:36:19.099Z,5.00
2019-02-11T09:38:46.349Z,4.90
2019-02-11T09:41:13.591Z,5.10
2019-02-11T09:43:40.817Z,5.40
2019-02-11T09:46:08.054Z,5.50
2019-02-11T09:48:35.284Z,5.50
2019-02-11T09:51:03.957Z,5.50
2019-02-11T09:53:31.676Z,6.30
2019-02-11T09:55:58.925Z,6.40
2019-02-11T09:58:26.160Z,6.00
2019-02-11T10:00:53.398Z,5.80
2019-02-11T10:03:20.633Z,5.80
2019-02-11T10:05:47.871Z,5.80
2019-02-11T10:08:15.431Z,6.40
2019-02-11T10:10:42.674Z,6.60
2019-02-11T10:13:09.916Z,6.40
2019-02-11T10:15:37.257Z,6.30
2019-02-11T10:18:04.851Z,6.50
2019-02-11T10:20:32.196Z,6.40
2019-02-11T10:22:59.543Z,6.30
2019-02-11T10:25:27.653Z,6.20
2019-02-11T10:28:00.485Z,5.90
2019-02-11T10:30:27.736Z,5.70
2019-02-11T10:32:55.116Z,5.60
2019-02-11T10:35:22.343Z,5.70
2019-02-11T10:37:49.579Z,5.60
2019-02-11T10:40:17.180Z,5.70
2019-02-11T10:42:44.400Z,6.30
2019-02-11T10:45:12.487Z,6.60
2019-02-11T10:47:41.347Z,6.80
2019-02-11T10:50:09.507Z,6.70
2019-02-11T10:52:36.724Z,6.50
2019-02-11T10:55:05.829Z,6.60
2019-02-11T10:57:33.047Z,6.40
2019-02-11T11:00:00.299Z,6.20
2019-02-11T11:02:27.892Z,6.00
2019-02-11T11:04:55.428Z,5.80
2019-02-11T11:07:22.676Z,5.80
2019-02-11T11:09:49.901Z,5.70
2019-02-11T11:12:18.443Z,5.60
2019-02-11T11:14:45.692Z,5.60
2019-02-11T11:17:13.226Z,5.60
2019-02-11T11:19:40.784Z,5.70
2019-02-11T11:22:07.902Z,5.70
2019-02-11T11:24:35.259Z,5.90
2019-02-11T11:27:02.489Z,6.00
2019-02-11T11:29:29.700Z,6.20
2019-02-11T11:31:56.949Z,6.20
2019-02-11T11:34:24.169Z,6.10
2019-02-11T11:36:51.391Z,6.00
2019-02-11T11:39:25.398Z,5.80
2019-02-11T11:41:52.875Z,5.90
2019-02-11T11:44:20.201Z,5.90
2019-02-11T11:46:47.742Z,5.90
2019-02-11T11:49:15.001Z,5.90
2019-02-11T11:51:42.260Z,6.00
2019-02-11T11:54:09.530Z,6.90
2019-02-11T11:56:36.841Z,7.20
2019-02-11T11:59:04.188Z,7.20
2019-02-11T12:01:31.443Z,7.10
2019-02-11T12:03:58.764Z,7.00
2019-02-11T12:06:26.106Z,7.40
2019-02-11T12:08:53.337Z,7.90
2019-02-11T12:11:20.690Z,9.10
2019-02-11T12:13:48.117Z,9.60
2019-02-11T12:16:15.454Z,8.90
2019-02-11T12:18:43.020Z,8.80
2019-02-11T12:21:10.447Z,9.10
2019-02-11T12:23:37.960Z,8.90
2019-02-11T12:26:05.208Z,9.10
2019-02-11T12:28:32.476Z,9.20
2019-02-11T12:30:59.791Z,9.20
2019-02-11T12:33:27.130Z,9.30
2019-02-11T12:35:54.466Z,9.10
2019-02-11T12:38:21.693Z,8.70
2019-02-11T12:40:49.030Z,8.10
2019-02-11T12:43:16.349Z,7.60
2019-02-11T12:45:43.657Z,7.40
2019-02-11T12:48:10.984Z,7.10
2019-02-11T12:50:38.294Z,7.10
2019-02-11T12:53:05.625Z,6.90
2019-02-11T12:55:32.967Z,6.60
2019-02-11T12:58:00.277Z,6.50
2019-02-11T13:00:27.936Z,6.50
2019-02-11T13:02:55.285Z,6.30
2019-02-11T13:05:32.297Z,6.20
2019-02-11T13:07:51.735Z,6.10
2019-02-11T13:10:19.664Z,6.10
2019-02-11T13:12:47.283Z,6.10
2019-02-11T13:15:33.474Z,6.00
2019-02-11T13:17:43.868Z,6.00
2019-02-11T13:20:12.214Z,6.10
2019-02-11T13:22:39.703Z,5.90
2019-02-11T13:25:09.390Z,5.70
2019-02-11T13:27:36.796Z,5.50
2019-02-11T13:30:05.062Z,5.30
2019-02-11T13:32:32.436Z,5.20
2019-02-11T13:34:59.756Z,5.20
2019-02-11T13:37:27.133Z,5.20
2019-02-11T13:39:54.444Z,5.60
2019-02-11T13:42:21.717Z,5.90
2019-02-11T13:44:49.038Z,5.60
2019-02-11T13:47:16.393Z,5.40
2019-02-11T13:49:46.562Z,5.50
2019-02-11T13:52:13.212Z,5.40
2019-02-11T13:54:40.552Z,5.40
2019-02-11T13:57:07.887Z,5.50
2019-02-11T13:59:35.107Z,5.60
2019-02-11T14:02:02.447Z,5.60
2019-02-11T14:04:30.019Z,5.80
2019-02-11T14:06:57.357Z,5.90
2019-02-11T14:09:24.689Z,5.90
2019-02-11T14:11:52.075Z,5.80
2019-02-11T14:14:27.568Z,5.90
2019-02-11T14:16:54.968Z,6.00
2019-02-11T14:19:22.322Z,6.10
2019-02-11T14:21:49.675Z,6.20
2019-02-11T14:24:17.052Z,6.30
2019-02-11T14:26:44.405Z,6.30
2019-02-11T14:29:11.716Z,6.40
2019-02-11T14:31:39.011Z,6.40
2019-02-11T14:34:09.883Z,6.40
2019-02-11T14:36:35.685Z,6.40
2019-02-11T14:39:08.350Z,6.60
2019-02-11T14:41:35.679Z,6.50
2019-02-11T14:44:02.915Z,6.30
2019-02-11T14:46:30.315Z,6.10
2019-02-11T14:48:57.588Z,6.20
2019-02-11T14:51:24.856Z,6.20
2019-02-11T14:53:52.496Z,6.40
2019-02-11T14:56:19.772Z,6.50
2019-02-11T14:58:47.077Z,6.50
2019-02-11T15:01:14.444Z,6.50
2019-02-11T15:03:42.168Z,6.60
2019-02-11T15:06:09.738Z,6.60
2019-02-11T15:08:36.965Z,6.50
2019-02-11T15:11:04.951Z,6.40
2019-02-11T15:13:32.531Z,6.50
2019-02-11T15:15:59.795Z,6.40
2019-02-11T15:18:34.083Z,6.50
2019-02-11T15:20:56.201Z,6.40
2019-02-11T15:23:23.486Z,6.50
2019-02-11T15:25:50.702Z,6.30
2019-02-11T15:28:17.921Z,6.30
2019-02-11T15:30:45.144Z,6.20
2019-02-11T15:33:12.363Z,6.20
2019-02-11T15:35:39.590Z,6.20
2019-02-11T15:38:06.723Z,6.30
2019-02-11T15:40:33.940Z,6.20
2019-02-11T15:43:01.471Z,6.10
2019-02-11T15:45:28.592Z,6.00
2019-02-11T15:47:55.844Z,5.90
2019-02-11T15:50:23.077Z,5.80
2019-02-11T15:52:50.295Z,5.80
2019-02-11T15:55:17.971Z,5.80
2019-02-11T15:57:45.217Z,5.80
2019-02-11T16:00:14.436Z,5.70
2019-02-11T16:02:41.703Z,5.60
2019-02-11T16:05:16.032Z,5.50
2019-02-11T16:07:38.146Z,5.40
2019-02-11T16:10:06.415Z,5.30
2019-02-11T16:12:33.919Z,5.20
2019-02-11T16:15:01.476Z,5.20
2019-02-11T16:17:29.035Z,5.10
2019-02-11T16:19:56.251Z,5.00
2019-02-11T16:22:23.526Z,5.00
2019-02-11T16:24:50.752Z,5.00
2019-02-11T16:27:17.925Z,4.90
2019-02-11T16:29:45.153Z,4.80
2019-02-11T16:32:12.419Z,4.70
2019-02-11T16:34:39.799Z,4.60
2019-02-11T16:37:07.124Z,4.50
2019-02-11T16:39:34.424Z,4.60
2019-02-11T16:42:01.692Z,4.60
2019-02-11T16:44:28.912Z,4.50
2019-02-11T16:46:56.195Z,4.40
2019-02-11T16:49:23.415Z,4.50
2019-02-11T16:51:50.688Z,4.70
2019-02-11T16:54:18.292Z,4.80
2019-02-11T16:56:45.562Z,5.00
2019-02-11T16:59:13.135Z,5.00
2019-02-11T17:01:40.417Z,5.00
2019-02-11T17:04:07.649Z,5.10
2019-02-11T17:06:34.912Z,5.10
2019-02-11T17:09:02.756Z,5.20
2019-02-11T17:11:30.320Z,5.20
2019-02-11T17:13:57.538Z,5.20
2019-02-11T17:16:25.215Z,5.20
2019-02-11T17:18:52.476Z,5.30
2019-02-11T17:21:19.700Z,5.40
2019-02-11T17:23:46.984Z,5.30
2019-02-11T17:26:14.543Z,5.30
2019-02-11T17:28:42.512Z,5.20
2019-02-11T17:31:09.832Z,5.10
2019-02-11T17:33:37.048Z,5.10
2019-02-11T17:36:04.274Z,5.00
2019-02-11T17:38:31.495Z,5.00
2019-02-11T17:40:58.733Z,5.00
2019-02-11T17:43:25.952Z,5.00
2019-02-11T17:45:53.479Z,4.80
2019-02-11T17:48:22.580Z,4.80
2019-02-11T17:50:49.895Z,4.80
2019-02-11T17:53:17.536Z,4.90
2019-02-11T17:55:44.760Z,4.90
2019-02-11T17:58:12.033Z,4.90
2019-02-11T18:00:44.315Z,5.00
2019-02-11T18:03:11.581Z,5.00
2019-02-11T18:05:38.924Z,5.00
2019-02-11T18:08:06.197Z,5.00
2019-02-11T18:10:33.783Z,5.00
2019-02-11T18:13:01.921Z,5.00
2019-02-11T18:15:29.136Z,5.00
2019-02-11T18:17:56.408Z,4.90
2019-02-11T18:20:23.686Z,4.70
2019-02-11T18:22:51.188Z,4.60
2019-02-11T18:25:18.484Z,4.50
2019-02-11T18:27:45.703Z,4.50
2019-02-11T18:30:13.815Z,4.50
2019-02-11T18:32:41.039Z,4.50
2019-02-11T18:35:09.223Z,4.40
2019-02-11T18:37:36.446Z,4.50
2019-02-11T18:40:04.443Z,4.50
2019-02-11T18:42:31.865Z,4.50
2019-02-11T18:44:59.085Z,4.60
2019-02-11T18:47:26.961Z,4.60
2019-02-11T18:49:54.203Z,4.70
2019-02-11T18:52:21.521Z,4.60
2019-02-11T18:54:49.026Z,4.50
2019-02-11T18:57:16.405Z,4.60
2019-02-11T18:59:43.648Z,4.50
2019-02-11T19:02:10.928Z,4.50
2019-02-11T19:04:38.241Z,4.40
2019-02-11T19:07:05.627Z,4.30
2019-02-11T19:09:32.956Z,4.20
2019-02-11T19:12:00.508Z,4.10
2019-02-11T19:14:27.757Z,4.00
2019-02-11T19:16:55.215Z,4.00
2019-02-11T19:19:22.442Z,4.00
2019-02-11T19:21:49.729Z,3.80
2019-02-11T19:24:16.956Z,3.70
2019-02-11T19:26:44.232Z,3.60
2019-02-11T19:29:11.464Z,3.50
2019-02-11T19:31:38.796Z,3.60
2019-02-11T19:34:06.020Z,3.60
2019-02-11T19:36:33.295Z,3.80
2019-02-11T19:39:00.524Z,3.90
2019-02-11T19:41:28.197Z,3.80
2019-02-11T19:43:55.412Z,3.80
2019-02-11T19:46:22.637Z,3.80
2019-02-11T19:48:49.896Z,3.70
2019-02-11T19:51:17.120Z,3.60
2019-02-11T19:53:44.344Z,3.50
2019-02-11T19:56:11.559Z,3.40
2019-02-11T19:58:38.792Z,3.40
2019-02-11T20:01:06.021Z,3.50
2019-02-11T20:03:33.635Z,3.50
2019-02-11T20:06:01.264Z,3.70
2019-02-11T20:08:28.831Z,3.50
2019-02-11T20:10:56.316Z,3.40
2019-02-11T20:13:23.537Z,3.40
2019-02-11T20:15:50.776Z,3.50
2019-02-11T20:18:18.343Z,3.30
2019-02-11T20:20:45.573Z,3.20
2019-02-11T20:23:12.793Z,3.10
2019-02-11T20:25:40.016Z,2.90
2019-02-11T20:28:07.267Z,2.70
2019-02-11T20:30:34.674Z,2.50
2019-02-11T20:33:01.892Z,2.60
2019-02-11T20:35:29.108Z,2.60
2019-02-11T20:37:56.696Z,2.50
2019-02-11T20:40:24.292Z,2.50
2019-02-11T20:42:51.608Z,2.60
2019-02-11T20:45:21.462Z,2.60
2019-02-11T20:47:48.683Z,2.30
2019-02-11T20:50:15.909Z,2.50
2019-02-11T20:52:43.211Z,2.60
2019-02-11T20:55:10.974Z,2.70
2019-02-11T20:57:38.254Z,2.30
2019-02-11T21:00:08.855Z,2.10
2019-02-11T21:02:36.132Z,1.90
2019-02-11T21:05:03.472Z,1.70
2019-02-11T21:07:31.065Z,1.60
2019-02-11T21:09:58.284Z,1.30
2019-02-11T21:12:25.797Z,1.30
2019-02-11T21:14:53.047Z,1.30
2019-02-11T21:17:20.267Z,1.30
2019-02-11T21:19:47.495Z,1.30
2019-02-11T21:22:14.726Z,1.30
2019-02-11T21:24:42.080Z,1.30
2019-02-11T21:27:09.311Z,1.20
2019-02-11T21:29:36.566Z,1.10
2019-02-11T21:32:04.103Z,1.10
2019-02-11T21:34:31.433Z,0.90
2019-02-11T21:36:58.700Z,0.80
2019-02-11T21:39:26.000Z,0.80
2019-02-11T21:41:53.221Z,0.70
2019-02-11T21:44:20.449Z,0.60
2019-02-11T21:46:47.683Z,0.60
2019-02-11T21:49:15.164Z,0.70
2019-02-11T21:51:42.402Z,0.70
2019-02-11T21:54:09.627Z,0.70
2019-02-11T21:56:36.877Z,0.70
2019-02-11T21:59:04.108Z,0.80
2019-02-11T22:01:31.253Z,0.90
2019-02-11T22:03:58.467Z,0.90
2019-02-11T22:06:25.694Z,0.90
2019-02-11T22:08:53.284Z,0.90
2019-02-11T22:11:20.517Z,0.80
2019-02-11T22:13:48.121Z,0.80
2019-02-11T22:16:15.673Z,0.70
2019-02-11T22:18:42.902Z,0.80
2019-02-11T22:21:10.124Z,0.80
2019-02-11T22:23:37.719Z,0.90
2019-02-11T22:26:04.939Z,1.00
2019-02-11T22:28:32.548Z,0.90
2019-02-11T22:30:59.777Z,0.90
2019-02-11T22:33:26.991Z,1.00
2019-02-11T22:35:54.208Z,1.00
2019-02-11T22:38:21.727Z,0.90
2019-02-11T22:40:48.953Z,0.90
2019-02-11T22:43:16.211Z,0.80
2019-02-11T22:45:43.544Z,0.70
2019-02-11T22:48:10.761Z,0.70
2019-02-11T22:50:42.984Z,0.60
2019-02-11T22:53:07.162Z,0.70
2019-02-11T22:55:34.771Z,0.60
2019-02-11T22:58:02.123Z,0.50
2019-02-11T23:00:43.875Z,0.40
2019-02-11T23:03:11.330Z,0.30
2019-02-11T23:05:38.659Z,0.20
2019-02-11T23:08:05.876Z,0.20
2019-02-11T23:10:33.124Z,0.20
2019-02-11T23:13:00.343Z,0.20
2019-02-11T23:15:27.588Z,0.00
2019-02-11T23:17:55.082Z,0.00
2019-02-11T23:20:22.357Z,-0.10
2019-02-11T23:22:49.583Z,0.00
2019-02-11T23:25:16.851Z,0.00
2019-02-11T23:27:44.082Z,0.00
2019-02-11T23:30:13.506Z,0.00
2019-02-11T23:32:41.170Z,0.00
2019-02-11T23:35:08.534Z,0.00
2019-02-11T23:37:35.831Z,0.00
2019-02-11T23:40:03.143Z,0.00
2019-02-11T23:42:30.616Z,0.00
2019-02-11T23:44:57.868Z,-0.20
2019-02-11T23:47:25.083Z,-0.40
2019-02-11T23:49:52.417Z,-0.50
2019-02-11T23:52:19.631Z,-0.50
2019-02-11T23:54:47.250Z,-0.30
2019-02-11T23:57:14.472Z,-0.30
2019-02-11T23:59:41.715Z,-0.50
